Time;durP1;ratioP1;P1;durP2;ratioP2;P2;SDS_P1;SDS_P2;PMS_P1;PMS_P2;Temp;Humidity;BMP_temperature;BMP_pressure;BME280_temperature;BME280_humidity;BME280_pressure;Samples;Min_cycle;Max_cycle;Signal;HPM_P1;HPM_P2
2023/08/19 00:02:26;;;;;;;4.70;4.28;;;;;;;;;;4929601;29;20060;-81
2023/08/19 00:04:54;;;;;;;4.35;4.00;;;;;;;;;;4925374;29;20055;-79
2023/08/19 00:07:21;;;;;;;4.72;4.35;;;;;;;;;;4928154;29;20525;-78
2023/08/19 00:09:49;;;;;;;4.53;4.13;;;;;;;;;;4927483;29;20068;-81
2023/08/19 00:12:16;;;;;;;5.28;4.60;;;;;;;;;;4928147;29;20626;-79
2023/08/19 00:14:44;;;;;;;4.88;4.28;;;;;;;;;;4926175;29;20553;-78
2023/08/19 00:17:11;;;;;;;4.80;4.47;;;;;;;;;;4928515;29;20107;-80
2023/08/19 00:19:39;;;;;;;4.97;4.43;;;;;;;;;;4928847;29;20486;-79
2023/08/19 00:22:06;;;;;;;4.70;4.30;;;;;;;;;;4928020;29;20058;-78
2023/08/19 00:24:34;;;;;;;4.75;4.30;;;;;;;;;;4926685;29;20067;-79
2023/08/19 00:27:01;;;;;;;4.75;4.40;;;;;;;;;;4920431;29;20047;-78
2023/08/19 00:29:29;;;;;;;7.45;4.13;;;;;;;;;;4926791;29;20162;-81
2023/08/19 00:31:57;;;;;;;4.80;4.38;;;;;;;;;;4928594;29;20058;-78
2023/08/19 00:34:24;;;;;;;4.18;3.88;;;;;;;;;;4925078;29;20114;-80
2023/08/19 00:36:52;;;;;;;4.97;4.32;;;;;;;;;;4909349;29;20058;-79
2023/08/19 00:39:19;;;;;;;4.40;4.10;;;;;;;;;;4911285;29;20506;-78
2023/08/19 00:41:48;;;;;;;4.32;4.03;;;;;;;;;;4923552;29;20057;-80
2023/08/19 00:44:16;;;;;;;4.32;3.92;;;;;;;;;;4909115;29;20119;-79
2023/08/19 00:46:43;;;;;;;4.55;4.00;;;;;;;;;;4911938;29;20442;-78
2023/08/19 00:49:11;;;;;;;4.40;4.00;;;;;;;;;;4910803;29;20051;-81
2023/08/19 00:51:38;;;;;;;4.45;4.10;;;;;;;;;;4926952;29;20046;-78
2023/08/19 00:54:06;;;;;;;4.45;4.05;;;;;;;;;;4924478;29;20491;-78
2023/08/19 00:56:33;;;;;;;4.63;4.22;;;;;;;;;;4908331;29;20058;-81
2023/08/19 00:59:01;;;;;;;4.30;4.00;;;;;;;;;;4927341;29;20154;-79
2023/08/19 01:01:29;;;;;;;4.55;4.22;;;;;;;;;;4910025;29;20558;-79
2023/08/19 01:03:56;;;;;;;4.93;4.53;;;;;;;;;;4926074;29;20052;-78
2023/08/19 01:06:37;;;;;;;4.47;3.90;;;;;;;;;;4904988;29;20561;-78
2023/08/19 01:09:23;;;;;;;4.70;4.30;;;;;;;;;;4923352;29;20135;-81
2023/08/19 01:12:09;;;;;;;5.85;4.40;;;;;;;;;;4917732;29;20056;-78
2023/08/19 01:14:41;;;;;;;7.95;4.88;;;;;;;;;;4906504;29;20722;-78
2023/08/19 01:17:12;;;;;;;4.35;4.05;;;;;;;;;;4926447;29;20074;-78
2023/08/19 01:19:41;;;;;;;5.35;4.07;;;;;;;;;;4926708;29;20055;-79
2023/08/19 01:22:12;;;;;;;4.53;3.90;;;;;;;;;;4927233;29;20054;-80
2023/08/19 01:24:40;;;;;;;7.30;4.15;;;;;;;;;;4910469;29;20422;-79
2023/08/19 01:27:21;;;;;;;4.28;3.95;;;;;;;;;;4908147;29;20106;-81
2023/08/19 01:29:49;;;;;;;5.63;4.28;;;;;;;;;;4927588;29;20118;-78
2023/08/19 01:32:18;;;;;;;4.20;3.80;;;;;;;;;;4907331;29;20051;-78
2023/08/19 01:34:46;;;;;;;4.82;4.40;;;;;;;;;;4922237;29;20502;-78
2023/08/19 01:37:28;;;;;;;4.75;4.20;;;;;;;;;;4928902;29;20055;-78
2023/08/19 01:39:57;;;;;;;8.98;4.65;;;;;;;;;;4927142;29;20089;-80
2023/08/19 01:42:25;;;;;;;4.28;3.88;;;;;;;;;;4926691;29;20537;-78
2023/08/19 01:44:54;;;;;;;5.20;4.68;;;;;;;;;;4925979;29;20044;-78
2023/08/19 01:47:21;;;;;;;5.75;4.45;;;;;;;;;;4923911;29;20635;-78
2023/08/19 01:49:49;;;;;;;7.30;4.32;;;;;;;;;;4910726;29;20047;-78
2023/08/19 01:52:19;;;;;;;4.72;4.32;;;;;;;;;;4911238;29;20047;-78
2023/08/19 01:54:48;;;;;;;6.40;4.00;;;;;;;;;;4905680;29;20054;-80
2023/08/19 01:57:15;;;;;;;4.75;4.43;;;;;;;;;;4924604;29;20071;-80
2023/08/19 01:59:43;;;;;;;6.03;4.63;;;;;;;;;;4908485;29;20059;-79
2023/08/19 02:02:10;;;;;;;7.07;4.43;;;;;;;;;;4908190;29;20134;-78
2023/08/19 02:04:38;;;;;;;5.60;4.60;;;;;;;;;;4922999;29;20147;-79
2023/08/19 02:07:05;;;;;;;4.65;4.20;;;;;;;;;;4907886;29;20532;-78
2023/08/19 02:09:32;;;;;;;4.45;4.15;;;;;;;;;;4907834;29;20589;-78
2023/08/19 02:12:00;;;;;;;4.53;3.70;;;;;;;;;;4921315;29;20079;-80
2023/08/19 02:14:27;;;;;;;5.65;4.68;;;;;;;;;;4926997;29;20562;-78
2023/08/19 02:16:55;;;;;;;5.45;5.00;;;;;;;;;;4927765;29;20134;-78
2023/08/19 02:19:24;;;;;;;4.90;4.50;;;;;;;;;;4907783;29;20122;-80
2023/08/19 02:21:52;;;;;;;5.13;4.72;;;;;;;;;;4902635;29;20207;-78
2023/08/19 02:24:19;;;;;;;5.40;4.90;;;;;;;;;;4908347;29;20462;-79
2023/08/19 02:26:46;;;;;;;4.60;4.20;;;;;;;;;;4921226;29;20039;-79
2023/08/19 02:29:14;;;;;;;5.72;4.45;;;;;;;;;;4907411;29;20047;-78
2023/08/19 02:31:41;;;;;;;6.63;4.78;;;;;;;;;;4927830;29;20061;-80
2023/08/19 02:34:09;;;;;;;4.97;4.57;;;;;;;;;;4930517;29;20048;-80
2023/08/19 02:36:37;;;;;;;4.78;4.38;;;;;;;;;;4929290;29;20051;-77
2023/08/19 02:39:04;;;;;;;5.32;4.82;;;;;;;;;;4930466;29;20540;-78
2023/08/19 02:41:32;;;;;;;4.28;3.97;;;;;;;;;;4919945;29;20184;-80
2023/08/19 02:44:00;;;;;;;4.32;4.03;;;;;;;;;;4910703;29;20079;-78
2023/08/19 02:46:28;;;;;;;5.45;4.55;;;;;;;;;;4926857;29;20043;-78
2023/08/19 02:48:56;;;;;;;6.07;4.90;;;;;;;;;;4930714;29;20051;-78
2023/08/19 02:51:23;;;;;;;4.85;4.53;;;;;;;;;;4925750;29;20048;-78
2023/08/19 02:53:51;;;;;;;5.13;4.70;;;;;;;;;;4925127;29;20048;-77
2023/08/19 02:56:19;;;;;;;4.55;4.25;;;;;;;;;;4911304;29;20102;-78
2023/08/19 02:58:46;;;;;;;4.68;4.40;;;;;;;;;;4927027;29;20059;-78
2023/08/19 03:01:14;;;;;;;6.75;6.05;;;;;;;;;;4909394;29;20468;-79
2023/08/19 03:03:44;;;;;;;4.95;4.65;;;;;;;;;;4929282;29;20066;-78
2023/08/19 03:06:11;;;;;;;4.68;4.35;;;;;;;;;;4930230;29;20043;-80
2023/08/19 03:08:39;;;;;;;4.97;4.57;;;;;;;;;;4914404;29;20048;-78
2023/08/19 03:11:06;;;;;;;6.05;4.97;;;;;;;;;;4912588;29;20039;-80
2023/08/19 03:13:35;;;;;;;5.82;4.90;;;;;;;;;;4928165;29;20071;-80
2023/08/19 03:16:03;;;;;;;6.30;5.05;;;;;;;;;;4913277;29;20058;-80
2023/08/19 03:18:30;;;;;;;4.93;4.53;;;;;;;;;;4929762;29;20570;-78
2023/08/19 03:20:58;;;;;;;6.70;5.10;;;;;;;;;;4911479;29;20562;-77
2023/08/19 03:23:26;;;;;;;8.75;4.97;;;;;;;;;;4920335;23;20058;-78
2023/08/19 03:25:56;;;;;;;5.57;5.07;;;;;;;;;;4919839;29;20044;-80
2023/08/19 03:28:23;;;;;;;5.50;5.07;;;;;;;;;;4924038;29;20047;-78
2023/08/19 03:30:51;;;;;;;5.00;4.60;;;;;;;;;;4929785;28;20134;-79
2023/08/19 03:33:20;;;;;;;5.50;4.50;;;;;;;;;;4906191;29;20047;-79
2023/08/19 03:35:48;;;;;;;5.40;4.50;;;;;;;;;;4918432;29;20103;-81
2023/08/19 03:38:15;;;;;;;4.85;4.38;;;;;;;;;;4893334;29;20048;-78
2023/08/19 03:40:43;;;;;;;6.57;4.38;;;;;;;;;;4919856;29;20493;-78
2023/08/19 03:43:10;;;;;;;4.88;4.47;;;;;;;;;;4912187;29;20056;-78
2023/08/19 03:45:38;;;;;;;5.00;4.60;;;;;;;;;;4893120;29;20494;-79
2023/08/19 03:48:06;;;;;;;5.35;4.50;;;;;;;;;;4903894;29;20273;-78
2023/08/19 03:50:34;;;;;;;5.95;4.10;;;;;;;;;;4894476;29;20072;-77
2023/08/19 03:53:02;;;;;;;6.25;4.30;;;;;;;;;;4898610;29;20598;-78
2023/08/19 03:55:30;;;;;;;4.80;4.40;;;;;;;;;;4922360;29;20064;-78
2023/08/19 03:57:58;;;;;;;7.18;5.00;;;;;;;;;;4925675;29;20039;-77
2023/08/19 04:00:25;;;;;;;5.55;5.00;;;;;;;;;;4909213;29;20048;-78
2023/08/19 04:02:53;;;;;;;4.68;4.38;;;;;;;;;;4908849;29;20106;-79
2023/08/19 04:05:21;;;;;;;4.75;4.40;;;;;;;;;;4907679;29;20123;-80
2023/08/19 04:07:48;;;;;;;7.05;4.10;;;;;;;;;;4906613;29;20279;-78
2023/08/19 04:10:17;;;;;;;4.43;4.03;;;;;;;;;;4912365;29;20451;-78
2023/08/19 04:12:45;;;;;;;5.60;4.90;;;;;;;;;;4899495;29;20052;-79
2023/08/19 04:15:13;;;;;;;5.78;5.28;;;;;;;;;;4912742;29;20158;-80
2023/08/19 04:17:41;;;;;;;5.43;4.60;;;;;;;;;;4894558;29;20048;-80
2023/08/19 04:20:09;;;;;;;4.90;4.57;;;;;;;;;;4911469;29;20059;-78
2023/08/19 04:22:37;;;;;;;4.82;4.53;;;;;;;;;;4908898;29;20060;-78
2023/08/19 04:25:05;;;;;;;5.20;4.80;;;;;;;;;;4900587;29;20048;-78
2023/08/19 04:27:32;;;;;;;6.03;4.95;;;;;;;;;;4895414;29;20467;-79
2023/08/19 04:30:01;;;;;;;4.95;4.65;;;;;;;;;;4895520;29;20044;-78
2023/08/19 04:32:30;;;;;;;5.43;4.70;;;;;;;;;;4920648;29;20051;-80
2023/08/19 04:34:59;;;;;;;6.15;4.45;;;;;;;;;;4899972;29;20410;-78
2023/08/19 04:37:27;;;;;;;5.15;4.78;;;;;;;;;;4881675;29;20044;-78
2023/08/19 04:39:56;;;;;;;6.40;4.60;;;;;;;;;;4898191;29;20159;-80
2023/08/19 04:42:31;;;;;;;5.10;4.70;;;;;;;;;;4894131;29;20059;-77
2023/08/19 04:44:58;;;;;;;4.93;4.32;;;;;;;;;;4919781;29;20107;-78
2023/08/19 04:47:30;;;;;;;5.07;4.72;;;;;;;;;;4909663;29;20130;-79
2023/08/19 04:49:58;;;;;;;5.68;4.90;;;;;;;;;;4904094;29;20044;-77
2023/08/19 04:52:26;;;;;;;5.38;4.88;;;;;;;;;;4910466;29;20091;-81
2023/08/19 04:54:54;;;;;;;5.95;4.50;;;;;;;;;;4898345;29;20481;-78
2023/08/19 04:57:21;;;;;;;5.68;5.18;;;;;;;;;;4892929;29;20048;-78
2023/08/19 04:59:50;;;;;;;5.43;4.85;;;;;;;;;;4891762;29;20054;-78
2023/08/19 05:02:17;;;;;;;6.25;5.22;;;;;;;;;;4909029;29;20419;-80
2023/08/19 05:04:45;;;;;;;6.28;4.80;;;;;;;;;;4893948;29;20089;-78
2023/08/19 05:07:12;;;;;;;5.97;5.03;;;;;;;;;;4919224;29;20123;-78
2023/08/19 05:09:39;;;;;;;5.53;4.97;;;;;;;;;;4907184;29;20487;-81
2023/08/19 05:12:07;;;;;;;5.63;5.13;;;;;;;;;;4913622;29;20056;-79
2023/08/19 05:14:34;;;;;;;5.53;4.82;;;;;;;;;;4896318;29;20400;-77
2023/08/19 05:17:02;;;;;;;5.15;4.78;;;;;;;;;;4907577;29;20128;-78
2023/08/19 05:19:31;;;;;;;5.45;4.82;;;;;;;;;;4891433;29;20060;-80
2023/08/19 05:21:59;;;;;;;5.50;4.75;;;;;;;;;;4905469;29;20094;-78
2023/08/19 05:24:26;;;;;;;5.57;5.07;;;;;;;;;;4892217;29;20092;-78
2023/08/19 05:26:54;;;;;;;5.35;4.85;;;;;;;;;;4901058;29;20380;-80
2023/08/19 05:29:21;;;;;;;5.30;4.88;;;;;;;;;;4922427;29;20051;-78
2023/08/19 05:31:49;;;;;;;5.97;5.28;;;;;;;;;;4892690;29;20043;-78
2023/08/19 05:34:16;;;;;;;6.18;5.22;;;;;;;;;;4911759;29;20043;-80
2023/08/19 05:36:44;;;;;;;5.45;4.97;;;;;;;;;;4914220;29;20067;-78
2023/08/19 05:39:12;;;;;;;5.28;4.88;;;;;;;;;;4915861;29;20431;-78
2023/08/19 05:41:39;;;;;;;5.57;5.18;;;;;;;;;;4907224;29;20058;-78
2023/08/19 05:44:07;;;;;;;5.93;5.43;;;;;;;;;;4916723;29;20052;-79
2023/08/19 05:46:34;;;;;;;6.03;5.47;;;;;;;;;;4914540;29;20099;-78
2023/08/19 05:49:02;;;;;;;5.95;5.35;;;;;;;;;;4911446;29;20086;-79
2023/08/19 05:51:29;;;;;;;6.22;5.53;;;;;;;;;;4923150;29;20446;-80
2023/08/19 05:54:00;;;;;;;5.70;5.28;;;;;;;;;;4926156;29;20048;-79
2023/08/19 05:56:28;;;;;;;5.97;5.20;;;;;;;;;;4920306;29;20380;-78
2023/08/19 05:58:56;;;;;;;5.47;5.07;;;;;;;;;;4922932;29;20139;-77
2023/08/19 06:01:23;;;;;;;5.18;4.78;;;;;;;;;;4918772;29;20056;-78
2023/08/19 06:03:51;;;;;;;5.53;5.03;;;;;;;;;;4916175;29;20051;-77
2023/08/19 06:06:19;;;;;;;5.68;5.22;;;;;;;;;;4922244;29;20521;-78
2023/08/19 06:08:47;;;;;;;5.03;4.72;;;;;;;;;;4927902;29;20050;-77
2023/08/19 06:11:14;;;;;;;6.45;4.78;;;;;;;;;;4917341;29;20055;-79
2023/08/19 06:13:41;;;;;;;5.13;4.72;;;;;;;;;;4918029;29;20107;-78
2023/08/19 06:16:09;;;;;;;5.53;5.13;;;;;;;;;;4918811;29;20063;-79
2023/08/19 06:18:36;;;;;;;6.03;5.53;;;;;;;;;;4905014;29;20083;-79
2023/08/19 06:21:04;;;;;;;6.07;5.47;;;;;;;;;;4914497;29;20049;-78
2023/08/19 06:23:32;;;;;;;6.32;5.90;;;;;;;;;;4914512;29;20051;-79
2023/08/19 06:26:00;;;;;;;6.10;5.60;;;;;;;;;;4920965;29;20422;-79
2023/08/19 06:28:27;;;;;;;8.10;5.45;;;;;;;;;;4925076;29;20044;-80
2023/08/19 06:30:56;;;;;;;5.78;5.30;;;;;;;;;;4916945;28;20522;-81
2023/08/19 06:33:24;;;;;;;5.47;5.07;;;;;;;;;;4921105;29;20052;-79
2023/08/19 06:35:52;;;;;;;5.97;5.38;;;;;;;;;;4916075;29;20486;-79
2023/08/19 06:38:20;;;;;;;6.78;4.82;;;;;;;;;;4918340;29;20184;-79
2023/08/19 06:40:53;;;;;;;5.47;5.03;;;;;;;;;;4916393;29;20048;-78
2023/08/19 06:43:21;;;;;;;5.65;5.15;;;;;;;;;;4918183;29;20062;-79
2023/08/19 06:45:49;;;;;;;5.80;5.32;;;;;;;;;;4916982;29;20051;-80
2023/08/19 06:48:17;;;;;;;5.15;4.85;;;;;;;;;;4924804;29;20046;-78
2023/08/19 06:50:45;;;;;;;5.40;5.00;;;;;;;;;;4919276;29;20335;-78
2023/08/19 06:53:12;;;;;;;5.18;4.78;;;;;;;;;;4924247;29;20044;-79
2023/08/19 06:55:40;;;;;;;5.40;5.00;;;;;;;;;;4898705;29;20522;-78
2023/08/19 06:58:10;;;;;;;5.18;4.82;;;;;;;;;;4909228;29;20076;-78
2023/08/19 07:00:38;;;;;;;5.57;5.00;;;;;;;;;;4913462;29;20052;-78
2023/08/19 07:03:06;;;;;;;6.75;5.18;;;;;;;;;;4914519;29;20142;-78
2023/08/19 07:05:35;;;;;;;5.22;4.72;;;;;;;;;;4914266;29;20052;-78
2023/08/19 07:08:06;;;;;;;5.82;5.32;;;;;;;;;;4932122;29;20151;-78
2023/08/19 07:10:33;;;;;;;6.88;5.38;;;;;;;;;;4923356;29;20127;-78
2023/08/19 07:13:01;;;;;;;5.90;5.40;;;;;;;;;;4928211;29;20130;-79
2023/08/19 07:15:29;;;;;;;6.57;6.07;;;;;;;;;;4915565;29;20062;-80
2023/08/19 07:17:58;;;;;;;6.22;5.35;;;;;;;;;;4920619;29;20672;-77
2023/08/19 07:20:26;;;;;;;5.47;5.10;;;;;;;;;;4924950;29;20576;-77
2023/08/19 07:22:53;;;;;;;5.78;5.18;;;;;;;;;;4919280;29;20103;-80
2023/08/19 07:25:21;;;;;;;5.38;4.97;;;;;;;;;;4920601;29;20047;-78
2023/08/19 07:27:49;;;;;;;5.25;4.85;;;;;;;;;;4921789;29;20131;-78
2023/08/19 07:30:16;;;;;;;6.82;5.47;;;;;;;;;;4926761;29;20470;-77
2023/08/19 07:32:45;;;;;;;5.25;4.78;;;;;;;;;;4920147;29;20177;-79
2023/08/19 07:35:13;;;;;;;5.65;5.13;;;;;;;;;;4928036;29;20052;-79
2023/08/19 07:37:40;;;;;;;5.30;4.90;;;;;;;;;;4923214;29;20418;-78
2023/08/19 07:40:09;;;;;;;5.90;5.40;;;;;;;;;;4921910;29;20104;-77
2023/08/19 07:42:37;;;;;;;6.05;5.30;;;;;;;;;;4915942;29;20112;-78
2023/08/19 07:45:05;;;;;;;6.28;5.68;;;;;;;;;;4917638;29;20348;-81
2023/08/19 07:47:32;;;;;;;6.18;5.60;;;;;;;;;;4915624;29;20427;-80
2023/08/19 07:50:00;;;;;;;5.97;5.50;;;;;;;;;;4921492;29;20569;-78
2023/08/19 07:52:27;;;;;;;6.07;5.68;;;;;;;;;;4920045;29;20569;-78
2023/08/19 07:54:56;;;;;;;6.38;5.78;;;;;;;;;;4904959;29;20112;-80
2023/08/19 07:57:23;;;;;;;6.32;5.75;;;;;;;;;;4927058;29;20091;-81
2023/08/19 07:59:50;;;;;;;6.05;5.53;;;;;;;;;;4925394;29;20048;-77
2023/08/19 08:02:18;;;;;;;8.77;5.90;;;;;;;;;;4901001;29;20051;-79
2023/08/19 08:04:46;;;;;;;6.05;5.40;;;;;;;;;;4921742;29;20047;-79
2023/08/19 08:07:15;;;;;;;5.57;5.18;;;;;;;;;;4909698;29;20510;-77
2023/08/19 08:09:46;;;;;;;5.82;5.35;;;;;;;;;;4917409;29;20083;-77
2023/08/19 08:12:13;;;;;;;5.80;5.07;;;;;;;;;;4915082;29;20103;-78
2023/08/19 08:14:41;;;;;;;5.45;4.95;;;;;;;;;;4897757;29;20678;-77
2023/08/19 08:17:08;;;;;;;4.80;4.47;;;;;;;;;;4918066;29;20077;-80
2023/08/19 08:19:36;;;;;;;5.28;4.88;;;;;;;;;;4924619;29;20138;-80
2023/08/19 08:22:03;;;;;;;5.03;4.63;;;;;;;;;;4915782;29;20051;-79
2023/08/19 08:24:35;;;;;;;5.47;4.57;;;;;;;;;;4911357;29;20053;-81
2023/08/19 08:27:03;;;;;;;5.10;4.60;;;;;;;;;;4920760;29;20240;-78
2023/08/19 08:29:30;;;;;;;5.28;4.78;;;;;;;;;;4928820;29;20051;-83
2023/08/19 08:31:57;;;;;;;5.18;4.78;;;;;;;;;;4911055;29;20416;-79
2023/08/19 08:34:25;;;;;;;5.38;4.97;;;;;;;;;;4919224;29;20063;-77
2023/08/19 08:36:53;;;;;;;5.00;4.65;;;;;;;;;;4921327;29;20048;-77
2023/08/19 08:39:20;;;;;;;5.43;4.93;;;;;;;;;;4918265;29;20059;-77
2023/08/19 08:41:48;;;;;;;5.40;4.90;;;;;;;;;;4921668;29;20059;-77
2023/08/19 08:44:16;;;;;;;5.10;4.80;;;;;;;;;;4923646;29;20489;-77
2023/08/19 08:46:45;;;;;;;5.55;5.05;;;;;;;;;;4912103;29;20040;-77
2023/08/19 08:49:13;;;;;;;5.43;4.93;;;;;;;;;;4918315;28;20051;-81
2023/08/19 08:51:41;;;;;;;5.30;4.90;;;;;;;;;;4923234;29;20111;-80
2023/08/19 08:54:08;;;;;;;5.65;5.15;;;;;;;;;;4916269;29;20064;-79
2023/08/19 08:56:35;;;;;;;5.45;5.00;;;;;;;;;;4923889;29;20114;-79
2023/08/19 08:59:03;;;;;;;6.25;4.88;;;;;;;;;;4926246;29;20047;-80
2023/08/19 09:01:32;;;;;;;5.15;4.85;;;;;;;;;;4920265;29;20083;-79
2023/08/19 09:04:05;;;;;;;5.13;4.72;;;;;;;;;;4921287;29;20062;-78
2023/08/19 09:06:33;;;;;;;4.75;4.45;;;;;;;;;;4925362;29;20055;-78
2023/08/19 09:09:04;;;;;;;5.57;5.18;;;;;;;;;;4920451;29;20043;-78
2023/08/19 09:11:37;;;;;;;4.82;4.47;;;;;;;;;;4923754;29;20070;-78
2023/08/19 09:14:23;;;;;;;5.03;4.63;;;;;;;;;;4925121;29;20046;-78
2023/08/19 09:16:51;;;;;;;5.10;4.80;;;;;;;;;;4920288;29;20089;-79
2023/08/19 09:19:18;;;;;;;5.32;4.93;;;;;;;;;;4926359;29;20079;-79
2023/08/19 09:21:45;;;;;;;4.88;4.47;;;;;;;;;;4922483;29;20048;-78
2023/08/19 09:24:15;;;;;;;4.85;4.50;;;;;;;;;;4914557;29;20485;-79
2023/08/19 09:26:43;;;;;;;7.25;4.47;;;;;;;;;;4926664;29;20043;-78
2023/08/19 09:29:11;;;;;;;4.65;4.25;;;;;;;;;;4905136;29;20056;-80
2023/08/19 09:31:39;;;;;;;5.25;4.80;;;;;;;;;;4907574;29;20091;-78
2023/08/19 09:34:08;;;;;;;4.78;4.47;;;;;;;;;;4906434;29;20510;-78
2023/08/19 09:36:36;;;;;;;4.82;4.53;;;;;;;;;;4911231;29;20055;-78
2023/08/19 09:39:03;;;;;;;4.90;4.57;;;;;;;;;;4920870;29;20386;-79
2023/08/19 09:41:32;;;;;;;4.57;4.28;;;;;;;;;;4905277;29;20083;-78
2023/08/19 09:43:59;;;;;;;5.90;4.80;;;;;;;;;;4913901;29;20083;-80
2023/08/19 09:46:33;;;;;;;5.10;4.75;;;;;;;;;;4912005;29;20063;-79
2023/08/19 09:49:00;;;;;;;5.10;4.60;;;;;;;;;;4920852;29;20044;-78
2023/08/19 09:51:29;;;;;;;4.25;4.05;;;;;;;;;;4911794;29;20055;-78
2023/08/19 09:53:57;;;;;;;5.05;4.65;;;;;;;;;;4915487;29;20050;-79
2023/08/19 09:56:28;;;;;;;4.90;4.53;;;;;;;;;;4916340;29;20056;-79
2023/08/19 09:58:56;;;;;;;4.88;4.47;;;;;;;;;;4922841;29;20054;-77
2023/08/19 10:01:25;;;;;;;4.32;4.07;;;;;;;;;;4921994;29;20634;-79
2023/08/19 10:03:53;;;;;;;4.90;4.50;;;;;;;;;;4905143;29;20052;-80
2023/08/19 10:06:23;;;;;;;4.45;4.15;;;;;;;;;;4892236;29;20135;-78
2023/08/19 10:08:55;;;;;;;5.00;4.60;;;;;;;;;;4915278;29;20040;-78
2023/08/19 10:11:22;;;;;;;;;;;;;;;;;;4919208;29;20052;-79
2023/08/19 10:13:50;;;;;;;4.82;4.57;;;;;;;;;;4924000;29;19982;-79
2023/08/19 10:16:18;;;;;;;5.53;4.95;;;;;;;;;;4915473;29;20056;-80
2023/08/19 10:18:47;;;;;;;5.05;4.70;;;;;;;;;;4909811;29;20480;-80
2023/08/19 10:21:16;;;;;;;6.53;5.00;;;;;;;;;;4920021;29;20055;-78
2023/08/19 10:23:44;;;;;;;4.80;4.45;;;;;;;;;;4918791;29;20047;-78
2023/08/19 10:26:14;;;;;;;8.18;4.60;;;;;;;;;;4920527;29;20046;-79
2023/08/19 10:28:41;;;;;;;5.15;4.70;;;;;;;;;;4915562;29;20052;-79
2023/08/19 10:31:13;;;;;;;5.18;4.68;;;;;;;;;;4903446;29;20052;-79
2023/08/19 10:33:43;;;;;;;5.20;4.90;;;;;;;;;;4913832;29;20060;-79
2023/08/19 10:36:15;;;;;;;5.38;4.90;;;;;;;;;;4903933;29;20423;-78
2023/08/19 10:38:42;;;;;;;4.80;4.50;;;;;;;;;;4921290;29;20067;-78
2023/08/19 10:41:16;;;;;;;5.10;4.70;;;;;;;;;;4914399;29;20436;-78
2023/08/19 10:43:49;;;;;;;5.22;4.93;;;;;;;;;;4917412;29;20402;-79
2023/08/19 10:46:19;;;;;;;5.28;4.90;;;;;;;;;;4922930;29;20050;-78
2023/08/19 10:48:49;;;;;;;6.32;5.00;;;;;;;;;;4918269;29;20070;-79
2023/08/19 10:51:18;;;;;;;4.68;4.38;;;;;;;;;;4914418;29;20051;-78
2023/08/19 10:54:06;;;;;;;4.90;4.60;;;;;;;;;;4925449;29;20099;-78
2023/08/19 10:56:34;;;;;;;4.60;4.30;;;;;;;;;;4923116;29;20537;-78
2023/08/19 10:59:02;;;;;;;4.35;4.07;;;;;;;;;;4913474;29;20059;-78
2023/08/19 11:01:32;;;;;;;4.63;4.32;;;;;;;;;;4904199;29;20119;-78
2023/08/19 11:04:01;;;;;;;4.55;4.18;;;;;;;;;;4930617;29;20541;-79
2023/08/19 11:06:33;;;;;;;4.00;3.70;;;;;;;;;;4918777;29;20058;-79
2023/08/19 11:09:01;;;;;;;4.30;4.10;;;;;;;;;;4922888;29;20510;-79
2023/08/19 11:11:28;;;;;;;4.00;3.72;;;;;;;;;;4929819;29;20056;-79
2023/08/19 11:13:56;;;;;;;4.13;3.83;;;;;;;;;;4922444;29;20044;-80
2023/08/19 11:16:27;;;;;;;4.80;4.15;;;;;;;;;;4922307;29;20188;-79
2023/08/19 11:18:56;;;;;;;4.07;3.80;;;;;;;;;;4921376;29;20135;-79
2023/08/19 11:21:25;;;;;;;3.72;3.45;;;;;;;;;;4920444;29;20055;-80
2023/08/19 11:23:52;;;;;;;3.75;3.55;;;;;;;;;;4924597;29;20998;-79
2023/08/19 11:26:20;;;;;;;3.40;3.20;;;;;;;;;;4927356;29;20102;-80
2023/08/19 11:28:49;;;;;;;3.75;3.45;;;;;;;;;;4899246;29;20554;-78
2023/08/19 11:31:16;;;;;;;4.00;3.70;;;;;;;;;;4920238;29;20130;-79
2023/08/19 11:33:44;;;;;;;3.90;3.63;;;;;;;;;;4923504;29;20067;-78
2023/08/19 11:36:11;;;;;;;3.50;3.20;;;;;;;;;;4926997;29;20442;-77
2023/08/19 11:38:39;;;;;;;4.05;3.45;;;;;;;;;;4923603;29;20154;-80
2023/08/19 11:41:06;;;;;;;3.10;2.90;;;;;;;;;;4921291;29;20084;-78
2023/08/19 11:43:44;;;;;;;4.18;3.60;;;;;;;;;;4922030;29;20048;-80
2023/08/19 11:46:12;;;;;;;3.47;3.17;;;;;;;;;;4914728;29;20126;-77
2023/08/19 11:48:40;;;;;;;3.20;3.00;;;;;;;;;;4907997;29;20535;-78
2023/08/19 11:51:11;;;;;;;3.85;3.20;;;;;;;;;;4927406;29;20154;-78
2023/08/19 11:53:41;;;;;;;3.22;2.92;;;;;;;;;;4917687;29;20440;-77
2023/08/19 11:56:09;;;;;;;3.60;3.30;;;;;;;;;;4929840;29;20048;-80
2023/08/19 11:58:38;;;;;;;3.30;3.10;;;;;;;;;;4921416;29;20058;-82
2023/08/19 12:01:06;;;;;;;3.22;3.03;;;;;;;;;;4922863;29;20047;-79
2023/08/19 12:03:33;;;;;;;3.30;3.10;;;;;;;;;;4925694;29;20048;-82
2023/08/19 12:06:02;;;;;;;3.40;3.13;;;;;;;;;;4921583;29;20051;-80
2023/08/19 12:08:30;;;;;;;3.35;3.15;;;;;;;;;;4931218;29;20056;-83
2023/08/19 12:10:58;;;;;;;2.92;2.75;;;;;;;;;;4904417;29;20048;-80
2023/08/19 12:13:29;;;;;;;3.30;3.10;;;;;;;;;;4924110;29;20100;-78
2023/08/19 12:16:00;;;;;;;3.50;3.30;;;;;;;;;;4923284;29;20040;-78
2023/08/19 12:18:30;;;;;;;2.97;2.78;;;;;;;;;;4925358;29;20056;-79
2023/08/19 12:20:57;;;;;;;3.08;2.90;;;;;;;;;;4928381;29;20541;-78
2023/08/19 12:23:25;;;;;;;2.80;2.70;;;;;;;;;;4927521;29;20138;-79
2023/08/19 12:25:53;;;;;;;3.10;2.90;;;;;;;;;;4931101;29;20044;-79
2023/08/19 12:28:25;;;;;;;3.03;2.63;;;;;;;;;;4928872;29;20107;-80
2023/08/19 12:30:55;;;;;;;3.28;2.80;;;;;;;;;;4934777;29;20218;-78
2023/08/19 12:33:24;;;;;;;2.85;2.75;;;;;;;;;;4940645;28;20162;-79
2023/08/19 12:35:52;;;;;;;2.95;2.75;;;;;;;;;;4939073;29;20051;-79
2023/08/19 12:38:31;;;;;;;2.63;2.47;;;;;;;;;;4935988;29;20047;-78
2023/08/19 12:41:01;;;;;;;2.83;2.63;;;;;;;;;;4932582;29;20111;-79
2023/08/19 12:43:29;;;;;;;;;;;;;;;;;;4922191;29;20048;-79
2023/08/19 12:45:56;;;;;;;3.10;2.90;;;;;;;;;;4932541;29;19927;-80
2023/08/19 12:48:25;;;;;;;3.83;2.80;;;;;;;;;;4931755;29;20063;-80
2023/08/19 12:50:53;;;;;;;2.95;2.80;;;;;;;;;;4932611;29;20397;-80
2023/08/19 12:53:21;;;;;;;2.83;2.63;;;;;;;;;;4936496;29;20058;-79
2023/08/19 12:55:48;;;;;;;2.63;2.38;;;;;;;;;;4941712;29;20605;-82
2023/08/19 12:58:16;;;;;;;2.85;2.55;;;;;;;;;;4932383;29;20474;-80
2023/08/19 13:00:43;;;;;;;3.60;2.60;;;;;;;;;;4932744;28;20097;-80
2023/08/19 13:03:13;;;;;;;2.45;2.35;;;;;;;;;;4926043;29;20047;-80
2023/08/19 13:05:41;;;;;;;3.00;2.70;;;;;;;;;;4931466;29;20474;-79
2023/08/19 13:08:08;;;;;;;3.78;2.50;;;;;;;;;;4932966;29;20640;-78
2023/08/19 13:10:35;;;;;;;2.70;2.53;;;;;;;;;;4934804;29;20477;-79
2023/08/19 13:13:05;;;;;;;2.92;2.70;;;;;;;;;;4933164;29;20051;-81
2023/08/19 13:15:33;;;;;;;2.75;2.65;;;;;;;;;;4937168;28;20055;-80
2023/08/19 13:18:00;;;;;;;2.70;2.60;;;;;;;;;;4942106;29;20121;-80
2023/08/19 13:20:29;;;;;;;2.80;2.60;;;;;;;;;;4922161;29;20226;-78
2023/08/19 13:22:56;;;;;;;2.95;2.65;;;;;;;;;;4923948;29;20061;-78
2023/08/19 13:25:24;;;;;;;2.67;2.53;;;;;;;;;;4929362;29;20082;-79
2023/08/19 13:27:51;;;;;;;2.50;2.30;;;;;;;;;;4936231;29;20055;-78
2023/08/19 13:30:18;;;;;;;3.10;2.35;;;;;;;;;;4933907;29;20051;-78
2023/08/19 13:32:46;;;;;;;2.75;2.55;;;;;;;;;;4939413;29;20051;-78
2023/08/19 13:35:14;;;;;;;2.70;2.55;;;;;;;;;;4929901;28;20039;-80
2023/08/19 13:37:41;;;;;;;2.67;2.58;;;;;;;;;;4928828;29;20077;-78
2023/08/19 13:40:09;;;;;;;2.55;2.40;;;;;;;;;;4928878;29;20043;-79
2023/08/19 13:42:37;;;;;;;2.58;2.40;;;;;;;;;;4937792;28;20130;-79
2023/08/19 13:45:07;;;;;;;2.55;2.45;;;;;;;;;;4928671;29;20083;-78
2023/08/19 13:47:34;;;;;;;2.42;2.33;;;;;;;;;;4931733;29;20090;-80
2023/08/19 13:50:05;;;;;;;2.45;2.35;;;;;;;;;;4936273;29;20145;-80
2023/08/19 13:52:39;;;;;;;3.35;2.60;;;;;;;;;;4944040;29;20058;-79
2023/08/19 13:55:07;;;;;;;2.65;2.22;;;;;;;;;;4937400;29;20070;-79
2023/08/19 13:57:35;;;;;;;2.90;2.70;;;;;;;;;;4932883;29;20190;-79
2023/08/19 14:00:22;;;;;;;2.45;2.28;;;;;;;;;;4930402;29;20070;-79
2023/08/19 14:02:50;;;;;;;2.45;2.25;;;;;;;;;;4916039;29;20436;-79
2023/08/19 14:05:18;;;;;;;2.97;2.30;;;;;;;;;;4932034;29;20059;-79
2023/08/19 14:07:46;;;;;;;2.60;2.47;;;;;;;;;;4929922;29;20051;-79
2023/08/19 14:10:16;;;;;;;2.28;2.17;;;;;;;;;;4930026;29;20040;-79
2023/08/19 14:12:47;;;;;;;2.35;2.25;;;;;;;;;;4929400;29;20110;-79
2023/08/19 14:15:14;;;;;;;;;;;;;;;;;;4934529;29;20126;-80
2023/08/19 14:17:42;;;;;;;2.30;2.03;;;;;;;;;;4936319;29;19947;-79
2023/08/19 14:20:11;;;;;;;3.08;2.20;;;;;;;;;;4936618;29;20055;-79
2023/08/19 14:22:42;;;;;;;2.93;2.07;;;;;;;;;;4936487;29;20052;-79
2023/08/19 14:25:12;;;;;;;2.38;2.28;;;;;;;;;;4926816;29;20072;-79
2023/08/19 14:27:40;;;;;;;2.33;2.10;;;;;;;;;;4927181;29;20378;-80
2023/08/19 14:30:08;;;;;;;2.20;2.10;;;;;;;;;;4929495;29;20103;-79
2023/08/19 14:32:35;;;;;;;2.45;2.08;;;;;;;;;;4912392;29;20500;-80
2023/08/19 14:35:03;;;;;;;2.22;2.13;;;;;;;;;;4934731;29;20044;-80
2023/08/19 14:37:31;;;;;;;2.55;2.20;;;;;;;;;;4924644;29;20054;-78
2023/08/19 14:39:59;;;;;;;2.63;2.42;;;;;;;;;;4924871;29;20051;-77
2023/08/19 14:42:27;;;;;;;2.90;2.20;;;;;;;;;;4919789;29;20488;-77
2023/08/19 14:44:54;;;;;;;2.58;2.45;;;;;;;;;;4920932;29;20052;-77
2023/08/19 14:47:21;;;;;;;2.47;2.38;;;;;;;;;;4917284;29;20103;-77
2023/08/19 14:49:49;;;;;;;3.30;2.30;;;;;;;;;;4927660;29;20519;-78
2023/08/19 14:52:18;;;;;;;2.28;2.17;;;;;;;;;;4944027;29;20052;-78